createdAt,value
2022-10-22T00:00:59.703Z,100662.75
2022-10-22T00:03:32.263Z,100665.53
2022-10-22T00:06:05.120Z,100667.41
2022-10-22T00:08:37.967Z,100660.41
2022-10-22T00:11:15.231Z,100667.47
2022-10-22T00:13:48.289Z,100661.28
2022-10-22T00:16:20.813Z,100662.03
2022-10-22T00:18:53.348Z,100661.09
2022-10-22T00:21:28.929Z,100660.19
2022-10-22T00:24:02.276Z,100658.38
2022-10-22T00:26:35.006Z,100662.75
2022-10-22T00:29:07.785Z,100660.88
2022-10-22T00:31:40.260Z,100663.53
2022-10-22T00:34:12.747Z,100656.53
2022-10-22T00:36:45.636Z,100665.28
2022-10-22T00:39:22.646Z,100666.09
2022-10-22T00:41:57.736Z,100670.44
2022-10-22T00:45:25.377Z,100671.16
2022-10-22T00:48:05.175Z,100673.81
2022-10-22T00:51:01.889Z,100668.53
2022-10-22T00:53:45.582Z,100673.81
2022-10-22T00:56:18.303Z,100653.56
2022-10-22T00:59:00.585Z,100667.78
2022-10-22T01:01:33.066Z,100662.47
2022-10-22T01:04:05.568Z,100673.81
2022-10-22T01:06:38.547Z,100667.59
2022-10-22T01:09:34.579Z,100672.97
2022-10-22T01:12:33.622Z,100665.94
2022-10-22T01:15:34.601Z,100673.00
2022-10-22T01:18:21.375Z,100665.88
2022-10-22T01:21:18.373Z,100659.72
2022-10-22T01:24:28.581Z,100667.69
2022-10-22T01:27:40.838Z,100669.53
2022-10-22T01:30:15.906Z,100663.34
2022-10-22T01:32:54.619Z,100665.22
2022-10-22T01:38:20.209Z,100666.94
2022-10-22T01:40:54.461Z,100659.81
2022-10-22T01:43:27.398Z,100659.81
2022-10-22T01:46:05.419Z,100651.19
2022-10-22T01:49:11.871Z,100652.06
2022-10-22T01:52:16.555Z,100651.25
2022-10-22T01:55:14.852Z,100657.41
2022-10-22T01:58:25.488Z,100656.53
2022-10-22T02:01:26.812Z,100658.31
2022-10-22T02:04:11.858Z,100660.03
2022-10-22T02:06:47.777Z,100654.75
2022-10-22T02:09:22.934Z,100661.94
2022-10-22T02:11:59.611Z,100657.44
2022-10-22T02:14:35.598Z,100663.63
2022-10-22T02:17:16.528Z,100669.81
2022-10-22T02:20:03.613Z,100672.47
2022-10-22T02:22:37.514Z,100668.09
2022-10-22T02:25:11.600Z,100660.13
2022-10-22T02:27:58.668Z,100665.56
2022-10-22T02:30:34.559Z,100662.94
2022-10-22T02:33:16.739Z,100669.16
2022-10-22T02:35:52.206Z,100663.09
2022-10-22T02:38:27.208Z,100662.34
2022-10-22T02:41:00.082Z,100656.19
2022-10-22T02:43:44.307Z,100662.25
2022-10-22T02:46:17.005Z,100663.16
2022-10-22T02:48:49.548Z,100668.38
2022-10-22T02:51:22.137Z,100670.81
2022-10-22T02:53:54.667Z,100672.56
2022-10-22T02:56:27.662Z,100671.66
2022-10-22T02:59:00.329Z,100678.69
2022-10-22T03:01:32.917Z,100680.53
2022-10-22T03:04:05.473Z,100677.88
2022-10-22T03:06:37.960Z,100678.75
2022-10-22T03:09:11.097Z,100684.06
2022-10-22T03:11:43.619Z,100685.81
2022-10-22T03:14:16.158Z,100689.41
2022-10-22T03:16:48.756Z,100682.03
2022-10-22T03:19:21.210Z,100684.59
2022-10-22T03:22:00.391Z,100679.13
2022-10-22T03:24:42.543Z,100681.53
2022-10-22T03:27:20.207Z,100685.91
2022-10-22T03:29:52.860Z,100684.94
2022-10-22T03:32:25.401Z,100690.22
2022-10-22T03:34:58.093Z,100694.56
2022-10-22T03:37:30.644Z,100693.00
2022-10-22T03:40:07.528Z,100697.28
2022-10-22T03:42:42.470Z,100707.84
2022-10-22T03:45:15.048Z,100705.25
2022-10-22T03:47:47.883Z,100704.19
2022-10-22T03:50:20.365Z,100712.00
2022-10-22T03:52:53.612Z,100718.31
2022-10-22T03:55:26.270Z,100714.81
2022-10-22T03:57:58.814Z,100714.66
2022-10-22T04:00:31.318Z,100716.47
2022-10-22T04:03:04.380Z,100718.06
2022-10-22T04:05:36.912Z,100712.97
2022-10-22T04:08:09.706Z,100712.75
2022-10-22T04:10:42.314Z,100720.69
2022-10-22T04:13:14.851Z,100721.09
2022-10-22T04:15:47.437Z,100716.66
2022-10-22T04:18:22.673Z,100731.19
2022-10-22T04:20:55.175Z,100721.44
2022-10-22T04:23:27.872Z,100731.50
2022-10-22T04:26:05.016Z,100724.03
2022-10-22T04:28:37.510Z,100727.59
2022-10-22T04:31:13.413Z,100726.59
2022-10-22T04:33:46.089Z,100728.44
2022-10-22T04:36:19.618Z,100737.38
2022-10-22T04:38:56.363Z,100733.50
2022-10-22T04:41:35.830Z,100721.28
2022-10-22T04:44:12.240Z,100721.94
2022-10-22T04:46:48.932Z,100727.34
2022-10-22T04:49:21.450Z,100725.44
2022-10-22T04:51:53.983Z,100728.06
2022-10-22T04:54:29.077Z,100741.34
2022-10-22T04:57:04.690Z,100731.56
2022-10-22T04:59:37.332Z,100732.41
2022-10-22T05:02:09.875Z,100738.69
2022-10-22T05:04:44.459Z,100736.03
2022-10-22T05:07:17.004Z,100738.53
2022-10-22T05:09:50.243Z,100737.59
2022-10-22T05:12:22.778Z,100736.41
2022-10-22T05:14:56.442Z,100736.38
2022-10-22T05:17:28.947Z,100739.81
2022-10-22T05:20:01.499Z,100738.63
2022-10-22T05:22:35.126Z,100736.78
2022-10-22T05:25:08.258Z,100741.88
2022-10-22T05:27:41.066Z,100743.53
2022-10-22T05:30:13.910Z,100746.97
2022-10-22T05:32:46.456Z,100753.81
2022-10-22T05:35:19.005Z,100746.63
2022-10-22T05:37:51.590Z,100743.97
2022-10-22T05:40:30.413Z,100749.50
2022-10-22T05:43:03.777Z,100756.78
2022-10-22T05:45:41.482Z,100750.41
2022-10-22T05:48:13.981Z,100758.28
2022-10-22T05:50:50.550Z,100768.81
2022-10-22T05:53:24.087Z,100765.66
2022-10-22T05:55:59.261Z,100768.34
2022-10-22T05:58:33.137Z,100765.56
2022-10-22T06:01:11.237Z,100768.41
2022-10-22T06:03:44.870Z,100774.50
2022-10-22T06:06:35.122Z,100780.97
2022-10-22T06:09:23.857Z,100782.88
2022-10-22T06:11:57.589Z,100785.22
2022-10-22T06:14:32.584Z,100781.56
2022-10-22T06:17:05.084Z,100787.84
2022-10-22T06:19:37.664Z,100792.38
2022-10-22T06:22:10.194Z,100798.38
2022-10-22T06:24:45.037Z,100809.94
2022-10-22T06:27:17.799Z,100815.34
2022-10-22T06:29:50.434Z,100825.81
2022-10-22T06:32:23.073Z,100819.53
2022-10-22T06:34:55.576Z,100825.66
2022-10-22T06:37:28.033Z,100828.38
2022-10-22T06:40:00.650Z,100833.59
2022-10-22T06:42:33.114Z,100840.00
2022-10-22T06:45:06.780Z,100835.34
2022-10-22T06:47:39.689Z,100839.03
2022-10-22T06:50:12.360Z,100845.41
2022-10-22T06:52:45.334Z,100851.41
2022-10-22T06:55:17.807Z,100850.66
2022-10-22T06:57:50.302Z,100855.03
2022-10-22T07:00:22.948Z,100861.38
2022-10-22T07:02:57.792Z,100863.91
2022-10-22T07:05:34.521Z,100867.75
2022-10-22T07:08:07.856Z,100881.69
2022-10-22T07:10:40.388Z,100884.34
2022-10-22T07:13:12.942Z,100883.41
2022-10-22T07:15:45.465Z,100886.63
2022-10-22T07:18:18.109Z,100888.94
2022-10-22T07:20:50.938Z,100901.81
2022-10-22T07:23:23.757Z,100894.53
2022-10-22T07:28:37.874Z,100903.13
2022-10-22T07:31:13.230Z,100898.38
2022-10-22T07:33:46.038Z,100902.78
2022-10-22T07:36:18.714Z,100912.72
2022-10-22T07:38:57.723Z,100912.75
2022-10-22T07:41:31.111Z,100915.06
2022-10-22T07:44:03.831Z,100916.75
2022-10-22T07:46:36.338Z,100919.31
2022-10-22T07:49:08.830Z,100923.50
2022-10-22T07:51:41.293Z,100926.75
2022-10-22T07:54:13.831Z,100923.31
2022-10-22T07:56:46.372Z,100933.19
2022-10-22T07:59:19.084Z,100936.53
2022-10-22T08:01:51.654Z,100934.19
2022-10-22T08:04:24.302Z,100944.00
2022-10-22T08:06:56.782Z,100946.59
2022-10-22T08:09:29.276Z,100948.94
2022-10-22T08:12:01.991Z,100942.53
2022-10-22T08:14:34.508Z,100951.53
2022-10-22T08:17:07.153Z,100950.25
2022-10-22T08:19:42.350Z,100948.22
2022-10-22T08:22:14.956Z,100955.69
2022-10-22T08:24:47.484Z,100961.50
2022-10-22T08:27:20.560Z,100971.66
2022-10-22T08:29:56.113Z,100966.50
2022-10-22T08:32:28.693Z,100966.00
2022-10-22T08:35:04.213Z,100977.53
2022-10-22T08:37:36.950Z,100978.19
2022-10-22T08:40:23.164Z,100983.69
2022-10-22T08:43:06.878Z,100982.22
2022-10-22T08:46:16.177Z,100990.28
2022-10-22T08:51:41.523Z,101002.50
2022-10-22T08:54:52.764Z,101003.78
2022-10-22T08:58:03.908Z,101009.16
2022-10-22T09:00:46.468Z,101020.16
2022-10-22T09:04:19.461Z,101017.91
2022-10-22T09:07:02.271Z,101028.72
2022-10-22T09:09:47.665Z,101026.97
2022-10-22T09:12:26.085Z,101025.13
2022-10-22T09:14:58.562Z,101035.00
2022-10-22T09:18:03.431Z,101038.84
2022-10-22T09:21:02.782Z,101032.41
2022-10-22T09:24:02.019Z,101050.22
2022-10-22T09:26:39.745Z,101052.09
2022-10-22T09:29:25.205Z,101052.38
2022-10-22T09:31:57.763Z,101051.16
2022-10-22T09:34:30.713Z,101054.25
2022-10-22T09:37:08.978Z,101060.53
2022-10-22T09:39:50.782Z,101068.00
2022-10-22T09:42:23.721Z,101071.91
2022-10-22T09:44:59.613Z,101073.97
2022-10-22T09:50:47.476Z,101076.03
2022-10-22T09:53:30.465Z,101075.78
2022-10-22T09:56:17.364Z,101082.19
2022-10-22T09:58:51.819Z,101086.72
2022-10-22T10:01:35.457Z,101084.81
2022-10-22T10:04:13.335Z,101094.75
2022-10-22T10:06:45.944Z,101101.31
2022-10-22T10:09:22.518Z,101108.22
2022-10-22T10:12:10.221Z,101108.00
2022-10-22T10:15:16.996Z,101127.13
2022-10-22T10:18:01.471Z,101117.03
2022-10-22T10:21:24.794Z,101125.53
2022-10-22T10:24:54.417Z,101117.47
2022-10-22T10:27:44.678Z,101124.31
2022-10-22T10:30:21.383Z,101128.88
2022-10-22T10:33:36.469Z,101133.03
2022-10-22T10:36:19.497Z,101129.28
2022-10-22T10:39:07.595Z,101135.03
2022-10-22T10:41:50.709Z,101133.03
2022-10-22T10:44:44.103Z,101135.69
2022-10-22T10:48:08.130Z,101139.06
2022-10-22T10:51:08.633Z,101145.25
2022-10-22T10:54:18.851Z,101143.91
2022-10-22T10:57:39.558Z,101148.69
2022-10-22T11:00:19.954Z,101137.41
2022-10-22T11:03:34.849Z,101134.13
2022-10-22T11:06:21.591Z,101139.25
2022-10-22T11:09:27.912Z,101139.72
2022-10-22T11:12:10.509Z,101130.81
2022-10-22T11:15:15.317Z,101138.16
2022-10-22T11:17:49.002Z,101139.41
2022-10-22T11:20:42.823Z,101145.13
2022-10-22T11:23:25.780Z,101148.91
2022-10-22T11:26:01.938Z,101150.94
2022-10-22T11:28:45.564Z,101141.75
2022-10-22T11:31:20.237Z,101141.63
2022-10-22T11:34:10.034Z,101137.34
2022-10-22T11:36:50.546Z,101125.25
2022-10-22T11:39:51.141Z,101134.56
2022-10-22T11:42:46.622Z,101134.38
2022-10-22T11:45:20.269Z,101130.81
2022-10-22T11:47:59.228Z,101131.75
2022-10-22T11:50:57.369Z,101130.72
2022-10-22T11:53:37.520Z,101128.50
2022-10-22T11:56:10.690Z,101126.78
2022-10-22T11:58:52.159Z,101130.38
2022-10-22T12:01:42.223Z,101124.59
2022-10-22T12:04:23.585Z,101136.84
2022-10-22T12:07:00.519Z,101125.31
2022-10-22T12:09:41.090Z,101129.16
2022-10-22T12:12:18.819Z,101125.59
2022-10-22T12:14:56.825Z,101128.53
2022-10-22T12:17:31.449Z,101140.28
2022-10-22T12:20:14.512Z,101145.00
2022-10-22T12:22:47.649Z,101142.72
2022-10-22T12:25:25.202Z,101147.91
2022-10-22T12:27:59.861Z,101147.34
2022-10-22T12:30:37.203Z,101151.75
2022-10-22T12:33:22.517Z,101154.28
2022-10-22T12:35:57.501Z,101145.38
2022-10-22T12:38:30.026Z,101151.41
2022-10-22T12:41:02.589Z,101146.09
2022-10-22T12:43:35.161Z,101146.00
2022-10-22T12:46:16.747Z,101142.56
2022-10-22T12:48:49.374Z,101143.34
2022-10-22T12:51:22.305Z,101142.97
2022-10-22T12:54:08.234Z,101140.03
2022-10-22T12:56:40.822Z,101142.13
2022-10-22T12:59:38.768Z,101136.94
2022-10-22T13:02:27.947Z,101144.34
2022-10-22T13:05:16.139Z,101136.94
2022-10-22T13:08:11.911Z,101137.44
2022-10-22T13:10:53.172Z,101138.97
2022-10-22T13:13:42.694Z,101132.53
2022-10-22T13:16:27.597Z,101140.16
2022-10-22T13:19:00.287Z,101137.38
2022-10-22T13:21:39.439Z,101135.25
2022-10-22T13:24:24.504Z,101134.00
2022-10-22T13:26:57.754Z,101123.84
2022-10-22T13:29:30.269Z,101131.72
2022-10-22T13:32:02.821Z,101133.19
2022-10-22T13:34:36.322Z,101133.75
2022-10-22T13:37:09.380Z,101140.06
2022-10-22T13:39:41.869Z,101125.63
2022-10-22T13:42:14.358Z,101134.47
2022-10-22T13:44:46.918Z,101124.47
2022-10-22T13:47:29.783Z,101123.69
2022-10-22T13:50:10.219Z,101118.91
2022-10-22T13:52:52.528Z,101124.38
2022-10-22T13:55:30.078Z,101128.50
2022-10-22T13:58:14.280Z,101126.13
2022-10-22T14:00:52.622Z,101136.81
2022-10-22T14:03:34.428Z,101135.94
2022-10-22T14:06:14.332Z,101133.34
2022-10-22T14:08:54.302Z,101135.00
2022-10-22T14:11:27.365Z,101133.75
2022-10-22T14:13:59.886Z,101130.78
2022-10-22T14:16:33.193Z,101130.84
2022-10-22T14:19:15.202Z,101126.53
2022-10-22T14:21:49.103Z,101131.47
2022-10-22T14:24:21.565Z,101133.19
2022-10-22T14:26:54.091Z,101139.28
2022-10-22T14:29:26.649Z,101136.16
2022-10-22T14:31:59.154Z,101139.00
2022-10-22T14:34:31.665Z,101140.22
2022-10-22T14:37:04.114Z,101140.72
2022-10-22T14:39:36.614Z,101141.38
2022-10-22T14:42:11.417Z,101141.94
2022-10-22T14:44:43.896Z,101142.59
2022-10-22T14:47:16.325Z,101138.69
2022-10-22T14:49:48.781Z,101147.81
2022-10-22T14:52:21.341Z,101155.59
2022-10-22T14:54:53.795Z,101160.97
2022-10-22T14:57:26.301Z,101157.09
2022-10-22T14:59:58.834Z,101157.66
2022-10-22T15:02:31.281Z,101169.50
2022-10-22T15:05:04.721Z,101170.72
2022-10-22T15:07:38.064Z,101180.88
2022-10-22T15:10:10.624Z,101179.63
2022-10-22T15:12:43.170Z,101176.94
2022-10-22T15:15:17.289Z,101179.41
2022-10-22T15:17:50.714Z,101183.13
2022-10-22T15:20:23.171Z,101181.66
2022-10-22T15:22:56.547Z,101176.47
2022-10-22T15:25:29.029Z,101179.34
2022-10-22T15:28:09.213Z,101178.59
2022-10-22T15:30:42.558Z,101185.00
2022-10-22T15:33:15.026Z,101182.47
2022-10-22T15:35:47.505Z,101178.47
2022-10-22T15:38:21.175Z,101176.25
2022-10-22T15:41:05.787Z,101181.00
2022-10-22T15:43:38.429Z,101181.59
2022-10-22T15:46:18.573Z,101174.97
2022-10-22T15:48:52.988Z,101176.25
2022-10-22T15:51:26.063Z,101170.38
2022-10-22T15:53:59.818Z,101175.03
2022-10-22T15:56:33.025Z,101167.81
2022-10-22T15:59:05.930Z,101175.03
2022-10-22T16:01:39.291Z,101167.50
2022-10-22T16:04:11.958Z,101159.84
2022-10-22T16:06:48.597Z,101167.50
2022-10-22T16:09:27.098Z,101166.28
2022-10-22T16:11:59.593Z,101177.50
2022-10-22T16:14:32.068Z,101175.44
2022-10-22T16:17:04.550Z,101183.16
2022-10-22T16:19:37.013Z,101177.44
2022-10-22T16:22:11.482Z,101187.72
2022-10-22T16:24:43.951Z,101189.03
2022-10-22T16:27:16.453Z,101186.88
2022-10-22T16:29:48.973Z,101185.50
2022-10-22T16:32:21.508Z,101184.97
2022-10-22T16:34:54.041Z,101190.66
2022-10-22T16:37:26.477Z,101187.50
2022-10-22T16:39:59.735Z,101192.25
2022-10-22T16:42:33.411Z,101183.00
2022-10-22T16:45:06.417Z,101192.03
2022-10-22T16:47:39.580Z,101192.38
2022-10-22T16:50:12.838Z,101183.06
2022-10-22T16:52:45.277Z,101189.50
2022-10-22T16:55:18.046Z,101191.47
2022-10-22T16:57:52.273Z,101200.59
2022-10-22T17:00:24.744Z,101199.97
2022-10-22T17:02:57.737Z,101206.41
2022-10-22T17:05:31.626Z,101206.63
2022-10-22T17:08:04.252Z,101206.75
2022-10-22T17:10:37.765Z,101204.28
2022-10-22T17:13:10.230Z,101201.84
2022-10-22T17:15:42.744Z,101205.50
2022-10-22T17:18:15.572Z,101210.97
2022-10-22T17:20:48.117Z,101205.81
2022-10-22T17:23:20.564Z,101210.44
2022-10-22T17:26:03.410Z,101210.66
2022-10-22T17:28:36.469Z,101223.19
2022-10-22T17:31:26.308Z,101211.81
2022-10-22T17:33:59.903Z,101217.25
2022-10-22T17:36:35.713Z,101209.38
2022-10-22T17:39:15.350Z,101212.16
2022-10-22T17:41:47.857Z,101208.81
2022-10-22T17:44:20.334Z,101216.00
2022-10-22T17:46:53.235Z,101217.03
2022-10-22T17:49:25.753Z,101217.13
2022-10-22T17:51:58.261Z,101222.66
2022-10-22T17:54:30.862Z,101224.53
2022-10-22T17:57:03.740Z,101217.59
2022-10-22T17:59:36.377Z,101222.13
2022-10-22T18:02:17.973Z,101216.03
2022-10-22T18:04:52.367Z,101225.84
2022-10-22T18:07:24.838Z,101217.16
2022-10-22T18:09:57.307Z,101226.03
2022-10-22T18:12:29.830Z,101225.25
2022-10-22T18:15:02.286Z,101233.28
2022-10-22T18:17:37.224Z,101234.19
2022-10-22T18:20:12.702Z,101223.63
2022-10-22T18:22:45.390Z,101233.38
2022-10-22T18:25:17.840Z,101232.53
2022-10-22T18:27:50.327Z,101235.25
2022-10-22T18:30:22.791Z,101235.25
2022-10-22T18:32:55.294Z,101244.13
2022-10-22T18:35:31.303Z,101235.31
2022-10-22T18:38:03.836Z,101245.94
2022-10-22T18:40:44.698Z,101239.78
2022-10-22T18:43:18.662Z,101241.59
2022-10-22T18:45:51.315Z,101241.59
2022-10-22T18:48:24.793Z,101237.19
2022-10-22T18:51:04.941Z,101238.94
2022-10-22T18:53:38.025Z,101235.47
2022-10-22T18:56:12.231Z,101231.06
2022-10-22T18:58:49.658Z,101229.34
2022-10-22T19:01:25.569Z,101233.78
2022-10-22T19:03:58.287Z,101224.91
2022-10-22T19:06:34.372Z,101218.72
2022-10-22T19:09:09.802Z,101209.06
2022-10-22T19:11:46.314Z,101214.38
2022-10-22T19:14:20.385Z,101210.81
2022-10-22T19:16:53.045Z,101202.00
2022-10-22T19:19:25.557Z,101199.34
2022-10-22T19:21:59.475Z,101194.94
2022-10-22T19:24:32.007Z,101204.66
2022-10-22T19:27:04.566Z,101203.75
2022-10-22T19:29:37.029Z,101209.97
2022-10-22T19:32:09.913Z,101205.56
2022-10-22T19:34:43.016Z,101202.06
2022-10-22T19:37:15.514Z,101202.06
2022-10-22T19:39:49.914Z,101201.16
2022-10-22T19:42:22.430Z,101209.13
2022-10-22T19:44:54.907Z,101195.00
2022-10-22T19:47:28.013Z,101202.06
2022-10-22T19:50:00.527Z,101201.16
2022-10-22T19:52:33.706Z,101201.16
2022-10-22T19:55:06.771Z,101193.19
2022-10-22T19:57:39.608Z,101202.91
2022-10-22T20:00:12.887Z,101194.94
2022-10-22T20:02:45.389Z,101196.69
2022-10-22T20:05:18.020Z,101197.59
2022-10-22T20:07:50.675Z,101195.84
2022-10-22T20:10:24.114Z,101204.72
2022-10-22T20:12:56.852Z,101207.31
2022-10-22T20:15:31.677Z,101217.06
2022-10-22T20:18:04.350Z,101211.78
2022-10-22T20:20:40.988Z,101215.34
2022-10-22T20:23:13.599Z,101210.88
2022-10-22T20:25:47.893Z,101208.28
2022-10-22T20:28:20.549Z,101218.91
2022-10-22T20:30:53.149Z,101216.28
2022-10-22T20:33:25.754Z,101223.25
2022-10-22T20:36:04.169Z,101225.00
2022-10-22T20:41:18.453Z,101223.19
2022-10-22T20:43:51.861Z,101224.03
2022-10-22T20:46:31.542Z,101217.94
2022-10-22T20:49:15.132Z,101212.56
2022-10-22T20:51:47.780Z,101208.91
2022-10-22T20:54:20.477Z,101209.72
2022-10-22T20:56:53.419Z,101214.19
2022-10-22T20:59:32.568Z,101224.81
2022-10-22T21:02:06.171Z,101221.28
2022-10-22T21:04:40.480Z,101224.75
2022-10-22T21:07:15.377Z,101219.50
2022-10-22T21:09:47.861Z,101223.00
2022-10-22T21:12:20.375Z,101225.66
2022-10-22T21:14:52.878Z,101231.81
2022-10-22T21:17:25.423Z,101225.66
2022-10-22T21:19:58.071Z,101224.84
2022-10-22T21:22:30.886Z,101207.19
2022-10-22T21:25:03.743Z,101208.09
2022-10-22T21:27:36.260Z,101216.91
2022-10-22T21:30:09.380Z,101222.22
2022-10-22T21:32:42.143Z,101220.47
2022-10-22T21:35:14.969Z,101221.41
2022-10-22T21:37:47.582Z,101217.94
2022-10-22T21:40:20.808Z,101222.34
2022-10-22T21:42:53.369Z,101224.13
2022-10-22T21:45:25.914Z,101229.41
2022-10-22T21:47:58.440Z,101248.91
2022-10-22T21:50:31.145Z,101243.56
2022-10-22T21:53:03.666Z,101240.91
2022-10-22T21:55:41.199Z,101232.03
2022-10-22T21:58:13.846Z,101223.16
2022-10-22T22:00:55.125Z,101225.75
2022-10-22T22:03:27.840Z,101222.19
2022-10-22T22:06:02.982Z,101223.00
2022-10-22T22:08:36.484Z,101217.69
2022-10-22T22:11:13.895Z,101216.78
2022-10-22T22:13:48.679Z,101221.13
2022-10-22T22:16:29.560Z,101220.28
2022-10-22T22:19:07.162Z,101214.06
2022-10-22T22:21:41.529Z,101202.59
2022-10-22T22:24:14.400Z,101199.09
2022-10-22T22:26:47.984Z,101199.09
2022-10-22T22:29:20.529Z,101207.00
2022-10-22T22:31:53.051Z,101208.81
2022-10-22T22:34:25.564Z,101201.75
2022-10-22T22:36:58.127Z,101198.31
2022-10-22T22:39:30.721Z,101196.56
2022-10-22T22:42:03.382Z,101199.22
2022-10-22T22:44:35.854Z,101196.56
2022-10-22T22:47:08.340Z,101196.56
2022-10-22T22:49:40.854Z,101192.22
2022-10-22T22:52:13.423Z,101193.97
2022-10-22T22:54:48.114Z,101180.75
2022-10-22T22:57:20.597Z,101181.66
2022-10-22T22:59:53.102Z,101192.28
2022-10-22T23:02:25.567Z,101186.06
2022-10-22T23:04:58.123Z,101183.41
2022-10-22T23:07:30.721Z,101179.00
2022-10-22T23:10:03.746Z,101173.75
2022-10-22T23:12:36.261Z,101177.38
2022-10-22T23:15:09.284Z,101178.41
2022-10-22T23:17:41.763Z,101183.78
2022-10-22T23:20:14.257Z,101180.34
2022-10-22T23:22:46.837Z,101178.66
2022-10-22T23:25:19.323Z,101175.22
2022-10-22T23:27:51.800Z,101175.31
2022-10-22T23:30:24.284Z,101174.53
2022-10-22T23:32:56.769Z,101174.59
2022-10-22T23:35:30.119Z,101165.00
2022-10-22T23:38:02.675Z,101156.19
2022-10-22T23:40:35.457Z,101151.78
2022-10-22T23:43:07.981Z,101141.16
2022-10-22T23:45:40.506Z,101141.06
2022-10-22T23:48:13.072Z,101141.06
2022-10-22T23:50:46.071Z,101145.41
2022-10-22T23:53:18.628Z,101141.78
2022-10-22T23:55:51.131Z,101143.53
2022-10-22T23:58:23.662Z,101138.16
